Aérodrome :
LOGIN :

S'inscrire | Disclaimer

   EN    FR    IT 

 










Légende :    VFR   VFR Marginal   IFR   IFR Intensif   IFR Très Intensif
Visi : 
Plafond : 
>= 8 km
>= 3000ft
5 à 8 km
1000 à 3000 ft
1500m à 5 km
500 à 1000 ft
800 à 1500m
200 à 500 ft
< 800m
< 200 ft
Symboles :   Orages  Brouillard  Fortes neiges  Fortes précipitations  Vent > 20 kt
SIGMETs :   Divers  Orages  Givrage  Turbulence  Onde Orograph.  Cendres Volcan.






- Altitude de l'aérodrome : 580 ft


LFOA - Avord

DERNIER METAR :
  • 250500Z AUTO 09003KT CAVOK 10/08 Q1032 NOSIG

METARs EXPIRÉS :
  • 250430Z AUTO 05006KT CAVOK 10/07 Q1032
  • 250400Z AUTO 04004KT CAVOK 10/07 Q1032
  • 250330Z AUTO 02003KT CAVOK 10/07 Q1032
  • 250300Z AUTO 07004KT CAVOK 10/07 Q1032
  • 250230Z AUTO 08005KT CAVOK 09/07 Q1032

TAF AMD TAF LFOA
Valide du 25 à 03h jusqu'au 26 à 03h UTC


250430Z 2503/2603 05010KT CAVOK



MET'MAP, la Météo Aéronautique d'un coup d'oeil ! - Copyright ORBIFLY Décembre 2007 - Disclaimer

ORBIFLY MET'MAP TEAM :

Programmation & Développement : Alexandra Zaïnal
Sur une idée originale de : Baudouin d'Aumeries
Assistance à la programmation : Marc-Olivier Méhu
Soutien technique & logistique : Manuel Goepfert

Contact : metmap@orbifly.com




SOURCES & CREDITS :

   NOAA